Time;durP1;ratioP1;P1;durP2;ratioP2;P2;SDS_P1;SDS_P2;PMS_P1;PMS_P2;Temp;Humidity;BMP_temperature;BMP_pressure;BME280_temperature;BME280_humidity;BME280_pressure;Samples;Min_cycle;Max_cycle;Signal;HPM_P1;HPM_P2
2021/11/04 00:00:31;;;;;;;141.93;44.95;;;7.70;96.50;;;;;;5053483;28;20060;-79
2021/11/04 00:02:57;;;;;;;142.80;47.50;;;7.70;96.40;;;;;;5054566;28;20760;-79
2021/11/04 00:05:23;;;;;;;148.73;47.08;;;7.70;96.40;;;;;;5054511;28;20067;-79
2021/11/04 00:07:51;;;;;;;174.85;48.53;;;7.60;96.50;;;;;;5053234;28;20041;-79
2021/11/04 00:10:19;;;;;;;275.58;52.88;;;7.60;96.50;;;;;;5041360;28;20009;-79
2021/11/04 00:12:45;;;;;;;292.02;55.70;;;7.60;96.50;;;;;;5054286;28;20104;-79
2021/11/04 00:15:11;;;;;;;273.88;53.72;;;7.60;96.40;;;;;;5053273;28;20025;-79
2021/11/04 00:17:38;;;;;;;279.48;56.20;;;7.60;96.40;;;;;;5054044;28;20021;-79
2021/11/04 00:20:07;;;;;;;176.23;50.92;;;7.60;96.40;;;;;;5054835;28;20100;-79
2021/11/04 00:22:33;;;;;;;183.77;52.88;;;7.60;96.50;;;;;;5053747;28;20052;-79
2021/11/04 00:24:59;;;;;;;145.43;51.40;;;7.60;96.70;;;;;;5043740;28;20356;-79
2021/11/04 00:27:24;;;;;;;502.25;66.18;;;7.60;96.50;;;;;;5054760;28;20029;-79
2021/11/04 00:29:50;;;;;;;232.65;55.83;;;7.60;96.50;;;;;;5049516;28;20052;-79
2021/11/04 00:32:16;;;;;;;180.23;49.75;;;7.60;96.40;;;;;;5049658;28;20065;-79
2021/11/04 00:34:41;;;;;;;233.82;49.45;;;7.50;96.40;;;;;;5051160;28;20029;-79
2021/11/04 00:37:07;;;;;;;204.00;46.50;;;7.50;96.40;;;;;;5051807;28;20451;-79
2021/11/04 00:39:33;;;;;;;138.38;43.05;;;7.50;96.50;;;;;;5048318;28;20041;-79
2021/11/04 00:41:58;;;;;;;134.80;44.53;;;7.50;96.50;;;;;;5043019;28;20029;-79
2021/11/04 00:44:24;;;;;;;329.40;48.95;;;7.50;96.50;;;;;;5049563;28;20055;-79
2021/11/04 00:46:50;;;;;;;301.73;47.65;;;7.50;96.40;;;;;;5033088;28;20094;-79
2021/11/04 00:49:16;;;;;;;245.82;44.20;;;7.60;96.40;;;;;;5051474;28;20108;-79
2021/11/04 00:51:41;;;;;;;186.82;44.42;;;7.50;96.40;;;;;;5052389;28;20029;-79
2021/11/04 00:54:07;;;;;;;186.55;41.83;;;7.50;96.40;;;;;;5053654;28;20116;-79
2021/11/04 00:56:33;;;;;;;118.25;39.75;;;7.50;96.40;;;;;;5052425;28;20025;-79
2021/11/04 00:58:58;;;;;;;383.98;51.42;;;7.50;96.40;;;;;;5053794;28;20166;-79
2021/11/04 01:01:24;;;;;;;280.95;45.55;;;7.50;96.40;;;;;;5052347;28;20032;-79
2021/11/04 01:03:52;;;;;;;104.35;40.80;;;7.50;96.40;;;;;;5051926;28;20029;-79
2021/11/04 01:06:20;;;;;;;421.70;53.10;;;7.50;96.50;;;;;;5052515;28;20032;-79
2021/11/04 01:08:46;;;;;;;115.88;41.70;;;7.50;96.50;;;;;;5053509;28;20373;-79
2021/11/04 01:11:12;;;;;;;159.50;42.30;;;7.50;96.50;;;;;;5052257;28;20032;-79
2021/11/04 01:13:38;;;;;;;112.75;41.13;;;7.60;96.50;;;;;;5052207;28;20482;-79
2021/11/04 01:16:04;;;;;;;131.27;41.00;;;7.50;96.40;;;;;;5053510;28;20428;-79
2021/11/04 01:18:30;;;;;;;206.88;45.47;;;7.60;96.50;;;;;;5053017;28;20063;-79
2021/11/04 01:20:56;;;;;;;302.27;43.80;;;7.50;96.40;;;;;;5053378;28;20636;-79
2021/11/04 01:23:22;;;;;;;134.80;44.03;;;7.50;96.40;;;;;;5043024;28;20053;-79
2021/11/04 01:25:48;;;;;;;218.55;44.70;;;7.50;96.40;;;;;;5042476;28;20045;-79
2021/11/04 01:28:15;;;;;;;124.15;43.10;;;7.50;96.40;;;;;;5052916;28;20048;-78
2021/11/04 01:30:41;;;;;;;131.63;45.08;;;7.50;96.50;;;;;;5053079;28;20017;-79
2021/11/04 01:33:07;;;;;;;166.75;46.22;;;7.50;96.50;;;;;;5033317;28;20029;-79
2021/11/04 01:35:33;;;;;;;137.30;46.35;;;7.50;96.50;;;;;;5033967;28;20029;-79
2021/11/04 01:38:04;;;;;;;119.43;46.42;;;7.50;96.50;;;;;;5053162;28;20509;-79
2021/11/04 01:40:31;;;;;;;328.08;57.13;;;7.50;96.50;;;;;;5053043;28;20028;-79
2021/11/04 01:42:57;;;;;;;106.43;44.50;;;7.50;96.50;;;;;;5052958;28;20040;-79
2021/11/04 01:45:24;;;;;;;133.50;45.08;;;7.50;96.50;;;;;;5053047;28;20108;-79
2021/11/04 01:47:51;;;;;;;124.70;45.88;;;7.50;96.50;;;;;;5052758;28;20032;-79
2021/11/04 01:50:19;;;;;;;184.68;50.70;;;7.50;96.50;;;;;;5052739;28;20044;-79
2021/11/04 01:52:47;;;;;;;165.55;50.00;;;7.50;96.40;;;;;;5052564;28;20369;-79
2021/11/04 01:55:18;;;;;;;113.70;45.00;;;7.50;96.40;;;;;;5052840;28;20031;-79
2021/11/04 01:57:45;;;;;;;98.55;40.70;;;7.50;96.50;;;;;;5053118;28;20025;-79
2021/11/04 02:00:11;;;;;;;196.93;48.28;;;7.50;96.50;;;;;;5049410;28;20032;-79
2021/11/04 02:02:43;;;;;;;104.32;43.22;;;7.50;96.50;;;;;;5031418;28;20593;-79
2021/11/04 02:05:09;;;;;;;162.73;46.08;;;7.50;96.40;;;;;;5032857;28;20026;-79
2021/11/04 02:07:43;;;;;;;150.57;43.95;;;7.50;96.40;;;;;;5031940;28;20381;-79
2021/11/04 02:10:14;;;;;;;266.48;53.03;;;7.50;96.40;;;;;;5031557;28;20051;-79
2021/11/04 02:13:01;;;;;;;103.43;42.78;;;7.40;96.30;;;;;;5032621;28;20017;-79
2021/11/04 02:15:29;;;;;;;118.22;44.65;;;7.40;96.40;;;;;;5047684;28;20024;-79
2021/11/04 02:17:57;;;;;;;112.10;43.58;;;7.40;96.40;;;;;;5055740;28;20028;-79
2021/11/04 02:20:54;;;;;;;185.32;47.00;;;7.40;96.50;;;;;;5056616;28;20033;-79
2021/11/04 02:23:41;;;;;;;102.65;41.50;;;7.50;96.50;;;;;;5042428;28;20477;-79
2021/11/04 02:26:09;;;;;;;100.03;39.58;;;7.40;96.40;;;;;;5035432;28;20445;-79
2021/11/04 02:28:38;;;;;;;102.80;40.13;;;7.50;96.50;;;;;;5046526;28;20558;-79
2021/11/04 02:31:06;;;;;;;134.40;47.15;;;7.50;96.40;;;;;;5056286;28;20470;-79
2021/11/04 02:33:32;;;;;;;140.85;46.35;;;7.50;96.40;;;;;;5056672;28;20819;-79
2021/11/04 02:35:59;;;;;;;98.22;42.35;;;7.50;96.30;;;;;;5035447;28;20136;-79
2021/11/04 02:38:30;;;;;;;134.05;46.47;;;7.50;96.30;;;;;;5038782;28;20025;-79
2021/11/04 02:40:57;;;;;;;112.10;42.80;;;7.50;96.40;;;;;;5055183;28;20132;-79
2021/11/04 02:43:23;;;;;;;113.68;41.78;;;7.50;96.40;;;;;;5038574;28;20036;-79
2021/11/04 02:45:49;;;;;;;123.05;43.10;;;7.60;96.30;;;;;;5056333;28;20029;-79
2021/11/04 02:48:17;;;;;;;110.35;41.00;;;7.60;96.30;;;;;;5055020;28;20029;-79
2021/11/04 02:50:49;;;;;;;98.55;40.70;;;7.50;96.20;;;;;;5054739;28;20044;-79
2021/11/04 02:53:16;;;;;;;92.88;39.17;;;7.50;96.20;;;;;;5054963;28;20029;-79
2021/11/04 02:55:42;;;;;;;84.18;36.65;;;7.50;96.20;;;;;;5055942;28;20029;-79
2021/11/04 02:58:10;;;;;;;81.70;35.58;;;7.60;96.20;;;;;;5054710;28;20057;-79
2021/11/04 03:00:39;;;;;;;99.10;40.25;;;7.50;96.20;;;;;;5054810;28;20029;-79
2021/11/04 03:03:04;;;;;;;89.10;37.28;;;7.50;96.10;;;;;;5055841;28;20430;-79
2021/11/04 03:05:30;;;;;;;81.65;36.92;;;7.50;96.10;;;;;;5055280;28;20071;-79
2021/11/04 03:07:56;;;;;;;106.95;42.35;;;7.50;96.10;;;;;;5053935;28;20025;-79
2021/11/04 03:10:22;;;;;;;85.72;37.35;;;7.50;96.10;;;;;;5054452;28;20024;-79
2021/11/04 03:12:48;;;;;;;87.45;37.97;;;7.50;96.20;;;;;;5055593;28;20111;-79
2021/11/04 03:15:20;;;;;;;98.15;42.03;;;7.50;96.20;;;;;;5054817;28;20382;-79
2021/11/04 03:17:48;;;;;;;108.25;43.30;;;7.50;96.10;;;;;;5038520;28;20116;-79
2021/11/04 03:20:19;;;;;;;115.00;44.00;;;7.50;96.10;;;;;;5053410;28;20024;-79
2021/11/04 03:22:46;;;;;;;123.25;44.97;;;7.50;96.10;;;;;;5053865;28;20131;-79
2021/11/04 03:25:15;;;;;;;112.88;44.67;;;7.50;96.10;;;;;;5052635;28;20091;-79
2021/11/04 03:27:43;;;;;;;97.82;42.03;;;7.50;96.20;;;;;;5048844;28;20033;-79
2021/11/04 03:30:11;;;;;;;143.40;44.78;;;7.50;96.10;;;;;;5033805;28;20025;-79
2021/11/04 03:32:38;;;;;;;150.00;45.90;;;7.50;96.10;;;;;;5033287;28;20033;-79
2021/11/04 03:35:06;;;;;;;95.45;41.20;;;7.50;96.10;;;;;;5042407;28;20029;-79
2021/11/04 03:37:33;;;;;;;113.28;44.42;;;7.50;96.10;;;;;;5051397;28;20036;-79
2021/11/04 03:39:59;;;;;;;102.57;42.28;;;7.50;96.10;;;;;;5051430;28;20029;-79
2021/11/04 03:42:25;;;;;;;124.18;45.28;;;7.50;96.10;;;;;;5054163;28;20041;-79
2021/11/04 03:44:53;;;;;;;106.85;42.92;;;7.50;96.10;;;;;;5054235;28;20131;-79
2021/11/04 03:47:19;;;;;;;132.55;45.05;;;7.50;96.10;;;;;;5053558;28;20811;-79
2021/11/04 03:49:49;;;;;;;147.73;47.13;;;7.50;96.10;;;;;;5053842;28;20094;-79
2021/11/04 03:52:15;;;;;;;114.30;43.25;;;7.50;96.10;;;;;;5053759;28;20053;-79
2021/11/04 03:54:42;;;;;;;110.97;42.22;;;7.40;96.10;;;;;;5054197;28;20021;-79
2021/11/04 03:57:07;;;;;;;96.25;39.55;;;7.50;96.10;;;;;;5054728;28;20056;-79
2021/11/04 03:59:34;;;;;;;105.30;40.10;;;7.40;96.10;;;;;;5053878;28;20029;-79
2021/11/04 04:02:00;;;;;;;114.63;43.22;;;7.50;96.10;;;;;;5053631;28;20056;-79
2021/11/04 04:04:25;;;;;;;141.90;44.97;;;7.50;96.10;;;;;;5036974;28;20045;-79
2021/11/04 04:06:55;;;;;;;122.07;45.90;;;7.50;96.10;;;;;;5054588;28;20032;-79
2021/11/04 04:09:23;;;;;;;132.85;44.10;;;7.50;96.10;;;;;;5054783;28;20494;-79
2021/11/04 04:11:50;;;;;;;104.97;41.70;;;7.50;96.10;;;;;;5054751;28;20112;-79
2021/11/04 04:14:16;;;;;;;100.65;40.20;;;7.50;96.10;;;;;;5054514;28;20044;-79
2021/11/04 04:16:42;;;;;;;116.63;40.95;;;7.50;96.10;;;;;;5054539;28;20029;-79
2021/11/04 04:19:08;;;;;;;102.90;38.92;;;7.50;96.00;;;;;;5052974;28;20039;-79
2021/11/04 04:21:34;;;;;;;122.45;41.63;;;7.40;96.00;;;;;;5054572;28;20063;-79
2021/11/04 04:23:59;;;;;;;98.03;39.30;;;7.40;96.00;;;;;;5054494;28;20061;-79
2021/11/04 04:26:25;;;;;;;110.32;38.20;;;7.40;95.90;;;;;;5053279;28;20398;-79
2021/11/04 04:28:51;;;;;;;117.18;40.20;;;7.30;95.90;;;;;;5054028;28;20048;-79
2021/11/04 04:31:16;;;;;;;84.15;34.75;;;7.30;95.90;;;;;;5054312;28;20025;-79
2021/11/04 04:33:42;;;;;;;131.70;38.42;;;7.30;95.90;;;;;;5054037;28;20052;-79
2021/11/04 04:36:08;;;;;;;111.70;40.67;;;7.30;95.90;;;;;;5053070;28;20025;-79
2021/11/04 04:38:34;;;;;;;105.90;37.80;;;7.30;95.90;;;;;;5053074;28;20115;-79
2021/11/04 04:41:00;;;;;;;111.15;39.75;;;7.30;96.00;;;;;;5053710;28;20071;-79
2021/11/04 04:43:25;;;;;;;112.10;37.72;;;7.30;96.00;;;;;;5052194;28;20033;-79
2021/11/04 04:45:52;;;;;;;130.50;42.63;;;7.30;96.00;;;;;;5053272;28;20494;-79
2021/11/04 04:48:18;;;;;;;133.38;36.95;;;7.30;96.00;;;;;;5053420;28;20120;-79
2021/11/04 04:50:43;;;;;;;96.50;36.13;;;7.20;96.20;;;;;;5052484;28;20108;-79
2021/11/04 04:53:09;;;;;;;104.10;38.47;;;7.30;96.00;;;;;;5052251;28;20028;-79
2021/11/04 04:55:35;;;;;;;108.35;40.83;;;7.30;96.00;;;;;;5053289;28;20021;-80
2021/11/04 04:58:02;;;;;;;117.65;40.28;;;7.30;96.00;;;;;;5052317;28;20043;-79
2021/11/04 05:00:28;;;;;;;103.93;34.50;;;7.30;96.00;;;;;;5053329;28;20524;-79
2021/11/04 05:02:54;;;;;;;117.55;36.90;;;7.20;96.00;;;;;;5052343;28;20501;-79
2021/11/04 05:05:20;;;;;;;99.28;37.63;;;7.20;96.00;;;;;;5052743;28;20029;-79
2021/11/04 05:07:46;;;;;;;98.55;36.45;;;7.20;96.20;;;;;;5052313;28;20048;-79
2021/11/04 05:10:12;;;;;;;79.00;33.70;;;7.20;95.90;;;;;;5053660;28;20517;-79
2021/11/04 05:12:37;;;;;;;88.97;34.08;;;7.20;96.00;;;;;;5053539;28;20074;-79
2021/11/04 05:15:06;;;;;;;93.15;35.97;;;7.20;96.00;;;;;;5053515;28;20025;-79
2021/11/04 05:17:34;;;;;;;95.80;33.67;;;7.20;95.90;;;;;;5052126;28;20074;-79
2021/11/04 05:20:00;;;;;;;81.97;32.20;;;7.20;95.90;;;;;;5053506;28;20053;-79
2021/11/04 05:22:26;;;;;;;112.78;34.30;;;7.20;95.90;;;;;;5052031;28;20789;-79
2021/11/04 05:24:52;;;;;;;77.28;33.53;;;7.20;95.90;;;;;;5019124;28;20048;-79
2021/11/04 05:27:17;;;;;;;72.07;31.73;;;7.10;95.90;;;;;;5053308;28;20045;-79
2021/11/04 05:29:43;;;;;;;78.18;33.13;;;7.20;95.90;;;;;;5052934;28;20179;-79
2021/11/04 05:32:08;;;;;;;87.43;35.90;;;7.20;95.90;;;;;;5053234;28;20025;-79
2021/11/04 05:34:36;;;;;;;141.82;37.60;;;7.20;95.90;;;;;;5051744;28;20024;-79
2021/11/04 05:37:02;;;;;;;93.43;36.05;;;7.20;95.90;;;;;;5053153;28;20059;-79
2021/11/04 05:39:27;;;;;;;94.70;36.40;;;7.20;95.90;;;;;;5053185;28;20029;-79
2021/11/04 05:41:53;;;;;;;80.28;33.83;;;7.20;96.00;;;;;;5051685;28;20482;-79
2021/11/04 05:44:18;;;;;;;97.78;37.25;;;7.20;95.90;;;;;;5052806;28;20039;-79
2021/11/04 05:46:44;;;;;;;83.90;34.85;;;7.20;95.90;;;;;;5053169;28;20032;-79
2021/11/04 05:49:10;;;;;;;109.82;36.20;;;7.20;95.90;;;;;;5051566;28;20120;-79
2021/11/04 05:51:35;;;;;;;97.43;38.65;;;7.20;95.90;;;;;;5052290;28;20047;-79
2021/11/04 05:54:01;;;;;;;98.05;39.63;;;7.20;95.90;;;;;;5051847;28;20064;-79
2021/11/04 05:56:26;;;;;;;97.38;37.97;;;7.20;95.90;;;;;;5053210;28;20044;-79
2021/11/04 05:58:52;;;;;;;111.05;37.65;;;7.20;96.00;;;;;;5035058;28;20096;-79
2021/11/04 06:01:18;;;;;;;100.70;38.80;;;7.20;96.00;;;;;;5051553;28;20120;-79
2021/11/04 06:03:43;;;;;;;108.03;39.55;;;7.30;96.00;;;;;;5035201;28;20432;-79
2021/11/04 06:06:09;;;;;;;105.05;38.08;;;7.20;96.00;;;;;;5051273;28;20040;-79
2021/11/04 06:08:34;;;;;;;99.22;39.28;;;7.30;96.10;;;;;;5052625;28;20025;-79
2021/11/04 06:11:00;;;;;;;102.70;39.28;;;7.30;96.10;;;;;;5050927;28;20033;-79
2021/11/04 06:13:26;;;;;;;75.32;35.13;;;7.30;96.10;;;;;;5051326;28;20476;-79
2021/11/04 06:15:51;;;;;;;106.57;39.83;;;7.30;96.00;;;;;;5052466;28;20044;-79
2021/11/04 06:18:17;;;;;;;82.15;35.80;;;7.30;96.00;;;;;;5052650;28;20448;-79
2021/11/04 06:20:43;;;;;;;76.50;34.38;;;7.30;96.00;;;;;;5054484;28;20037;-79
2021/11/04 06:23:08;;;;;;;89.47;37.25;;;7.30;96.00;;;;;;5051348;28;20041;-79
2021/11/04 06:25:34;;;;;;;76.50;34.78;;;7.30;96.00;;;;;;5051561;28;20493;-79
2021/11/04 06:27:59;;;;;;;89.25;37.85;;;7.30;96.00;;;;;;5052047;28;20060;-79
2021/11/04 06:30:25;;;;;;;101.63;37.97;;;7.30;96.00;;;;;;5052545;28;20044;-79
2021/11/04 06:32:51;;;;;;;98.80;37.42;;;7.30;96.00;;;;;;5069660;28;20074;-79
2021/11/04 06:35:17;;;;;;;113.85;36.15;;;7.30;96.00;;;;;;5032321;28;20433;-79
2021/11/04 06:37:43;;;;;;;90.07;36.47;;;7.30;95.90;;;;;;5048335;28;20055;-79
2021/11/04 06:40:09;;;;;;;85.47;35.78;;;7.30;95.90;;;;;;5050025;28;20075;-79
2021/11/04 06:42:36;;;;;;;84.47;36.40;;;7.30;95.90;;;;;;5044524;28;20029;-79
2021/11/04 06:45:04;;;;;;;78.72;35.78;;;7.30;95.90;;;;;;5051923;28;20143;-80
2021/11/04 06:47:38;;;;;;;79.93;36.13;;;7.30;95.80;;;;;;5056232;28;20040;-80
2021/11/04 06:50:04;;;;;;;83.40;33.25;;;7.30;95.90;;;;;;5050984;28;20687;-80
2021/11/04 06:52:37;;;;;;;69.78;33.42;;;7.20;95.90;;;;;;5052479;28;20029;-80
2021/11/04 06:55:05;;;;;;;71.68;32.78;;;7.30;95.90;;;;;;5051099;28;20031;-80
2021/11/04 06:57:34;;;;;;;67.70;33.03;;;7.30;95.90;;;;;;5052212;28;20429;-80
2021/11/04 07:00:04;;;;;;;61.90;30.67;;;7.30;95.90;;;;;;5051133;28;20268;-80
2021/11/04 07:02:32;;;;;;;63.38;31.83;;;7.30;95.90;;;;;;5051979;28;20033;-80
2021/11/04 07:04:59;;;;;;;94.77;34.40;;;7.30;95.80;;;;;;5034840;28;20080;-80
2021/11/04 07:07:25;;;;;;;62.75;29.15;;;7.20;95.70;;;;;;5045566;28;20256;-80
2021/11/04 07:09:51;;;;;;;113.85;35.72;;;7.20;95.70;;;;;;5055783;28;20029;-80
2021/11/04 07:12:17;;;;;;;71.03;33.42;;;7.20;95.70;;;;;;5054788;28;20505;-80
2021/11/04 07:14:43;;;;;;;64.55;31.95;;;7.20;95.70;;;;;;5055832;28;20025;-80
2021/11/04 07:17:11;;;;;;;113.53;37.22;;;7.20;95.70;;;;;;5054558;28;20082;-79
2021/11/04 07:19:38;;;;;;;95.03;36.00;;;7.20;95.80;;;;;;5053827;28;20048;-80
2021/11/04 07:22:27;;;;;;;74.30;34.53;;;7.20;95.80;;;;;;5055388;28;20098;-80
2021/11/04 07:25:04;;;;;;;61.70;31.17;;;7.20;95.80;;;;;;5054912;28;20048;-80
2021/11/04 07:27:38;;;;;;;68.00;31.95;;;7.20;95.80;;;;;;5054484;28;20040;-79
2021/11/04 07:30:10;;;;;;;63.53;31.98;;;7.20;95.80;;;;;;5053565;28;20033;-80
2021/11/04 07:32:52;;;;;;;79.00;33.95;;;7.20;95.80;;;;;;5053176;28;20017;-80
2021/11/04 07:35:22;;;;;;;69.28;33.05;;;7.20;95.80;;;;;;5051214;28;20078;-80
2021/11/04 07:37:48;;;;;;;59.80;31.02;;;7.20;95.80;;;;;;5054241;28;20036;-80
2021/11/04 07:40:17;;;;;;;87.75;37.70;;;7.20;95.80;;;;;;5036951;28;20029;-80
2021/11/04 07:42:43;;;;;;;69.78;33.72;;;7.20;95.90;;;;;;5055035;28;20021;-80
2021/11/04 07:45:09;;;;;;;68.72;35.65;;;7.20;95.80;;;;;;5047652;28;20063;-80
2021/11/04 07:48:04;;;;;;;72.55;35.50;;;7.30;95.90;;;;;;5054182;28;20397;-80
2021/11/04 07:50:32;;;;;;;72.35;33.47;;;7.30;95.90;;;;;;5040627;28;20041;-80
2021/11/04 07:52:58;;;;;;;73.50;35.38;;;7.30;95.80;;;;;;5054931;28;20583;-80
2021/11/04 07:55:24;;;;;;;72.75;32.83;;;7.30;95.80;;;;;;5053877;28;20100;-80
2021/11/04 07:57:49;;;;;;;73.22;33.55;;;7.30;95.90;;;;;;5034958;28;20041;-80
2021/11/04 08:00:21;;;;;;;69.82;35.30;;;7.40;95.90;;;;;;5054697;28;20021;-80
2021/11/04 08:02:48;;;;;;;71.55;34.47;;;7.40;95.90;;;;;;5054980;28;20075;-80
2021/11/04 08:05:16;;;;;;;79.93;38.17;;;7.50;95.80;;;;;;5053480;28;20021;-81
2021/11/04 08:07:42;;;;;;;88.97;38.15;;;7.50;95.80;;;;;;5035366;28;20079;-80
2021/11/04 08:10:10;;;;;;;70.63;36.20;;;7.50;95.80;;;;;;5034221;28;20494;-80
2021/11/04 08:12:36;;;;;;;68.32;36.28;;;7.60;95.80;;;;;;5034762;28;20534;-80
2021/11/04 08:15:04;;;;;;;65.47;35.00;;;7.60;95.80;;;;;;5034308;28;20068;-80
2021/11/04 08:17:30;;;;;;;80.43;37.88;;;7.60;95.80;;;;;;5034573;28;20100;-80
2021/11/04 08:19:56;;;;;;;75.53;37.75;;;7.60;95.80;;;;;;5034461;28;20117;-80
2021/11/04 08:22:22;;;;;;;82.65;41.65;;;7.60;95.70;;;;;;5046597;28;20037;-79
2021/11/04 08:24:47;;;;;;;81.85;42.25;;;7.70;95.80;;;;;;5054413;28;20047;-80
2021/11/04 08:27:15;;;;;;;93.00;42.80;;;7.70;95.80;;;;;;5054330;28;20033;-80
2021/11/04 08:29:40;;;;;;;76.15;37.67;;;7.70;95.80;;;;;;5052713;28;20056;-80
2021/11/04 08:32:08;;;;;;;81.25;40.30;;;7.80;95.80;;;;;;5052701;28;20029;-80
2021/11/04 08:34:34;;;;;;;95.90;46.35;;;7.70;95.70;;;;;;5053819;28;20535;-80
2021/11/04 08:37:00;;;;;;;90.72;44.40;;;7.80;95.70;;;;;;5053769;28;20033;-80
2021/11/04 08:39:27;;;;;;;91.15;44.83;;;7.80;95.70;;;;;;5052668;28;20025;-80
2021/11/04 08:41:53;;;;;;;88.50;42.88;;;7.80;95.70;;;;;;5054180;28;20431;-80
2021/11/04 08:44:20;;;;;;;93.05;42.88;;;7.80;96.00;;;;;;5052792;28;20110;-80
2021/11/04 08:46:47;;;;;;;94.07;43.35;;;7.80;95.70;;;;;;5052841;28;20029;-80
2021/11/04 08:49:13;;;;;;;97.50;46.60;;;7.90;95.70;;;;;;5052454;28;20021;-80
2021/11/04 08:51:39;;;;;;;95.22;44.65;;;7.90;95.60;;;;;;5053748;28;20028;-80
2021/11/04 08:54:05;;;;;;;89.32;43.88;;;7.90;95.60;;;;;;5053391;28;20033;-80
2021/11/04 08:56:30;;;;;;;113.78;46.30;;;7.90;95.60;;;;;;5053429;28;20048;-80
2021/11/04 08:58:57;;;;;;;88.10;42.78;;;8.00;95.60;;;;;;5053314;28;20031;-80
2021/11/04 09:01:22;;;;;;;88.55;43.60;;;7.90;95.80;;;;;;5053567;28;20367;-80
2021/11/04 09:03:48;;;;;;;105.18;47.35;;;8.00;95.50;;;;;;5032273;28;20032;-80
2021/11/04 09:06:16;;;;;;;102.97;45.97;;;8.00;95.50;;;;;;5033579;28;20045;-80
2021/11/04 09:08:42;;;;;;;102.30;46.80;;;8.00;95.50;;;;;;5033614;28;20033;-80
2021/11/04 09:11:07;;;;;;;102.88;46.28;;;8.00;95.50;;;;;;5049958;28;20359;-80
2021/11/04 09:13:33;;;;;;;84.28;41.53;;;8.00;95.50;;;;;;5053377;28;20037;-83
2021/11/04 09:15:59;;;;;;;120.15;47.20;;;7.90;95.60;;;;;;5053385;28;20028;-80
2021/11/04 09:18:24;;;;;;;104.80;46.13;;;8.00;95.60;;;;;;5052084;28;20044;-80
2021/11/04 09:20:50;;;;;;;102.65;44.25;;;8.00;95.80;;;;;;5053059;28;20029;-80
2021/11/04 09:23:16;;;;;;;91.32;43.53;;;8.00;95.50;;;;;;5051870;28;20025;-77
2021/11/04 09:25:41;;;;;;;94.35;44.03;;;8.00;95.60;;;;;;5034476;28;20067;-79
2021/11/04 09:28:07;;;;;;;104.00;44.50;;;8.10;95.70;;;;;;5052498;28;20052;-80
2021/11/04 09:30:33;;;;;;;91.00;41.60;;;8.10;95.60;;;;;;5051432;28;20530;-80
2021/11/04 09:32:59;;;;;;;97.07;44.75;;;8.20;95.60;;;;;;5053096;28;20053;-79
2021/11/04 09:35:25;;;;;;;105.38;44.60;;;8.20;95.50;;;;;;5035239;28;20386;-80
2021/11/04 09:37:52;;;;;;;82.93;40.10;;;8.20;95.50;;;;;;5051645;28;20029;-80
2021/11/04 09:40:18;;;;;;;84.90;40.25;;;8.30;95.50;;;;;;5028090;28;20049;-80
2021/11/04 09:42:46;;;;;;;79.65;37.97;;;8.30;95.40;;;;;;5032158;28;20063;-80
2021/11/04 09:45:12;;;;;;;84.13;39.30;;;8.40;95.40;;;;;;5049906;28;20497;-79
2021/11/04 09:47:37;;;;;;;74.80;38.47;;;8.40;95.40;;;;;;5050271;28;20442;-77
2021/11/04 09:50:09;;;;;;;78.78;37.75;;;8.50;95.40;;;;;;5052300;28;20029;-80
2021/11/04 09:52:37;;;;;;;74.43;35.88;;;8.50;95.20;;;;;;5050912;28;20470;-81
2021/11/04 09:55:08;;;;;;;69.20;36.72;;;8.50;95.20;;;;;;5052831;28;20033;-79
2021/11/04 09:57:34;;;;;;;78.25;37.20;;;8.60;95.00;;;;;;5052691;28;20028;-79
2021/11/04 09:59:59;;;;;;;72.45;35.80;;;8.60;95.00;;;;;;5035150;28;20063;-78
2021/11/04 10:02:28;;;;;;;68.65;34.58;;;8.60;95.10;;;;;;5051665;28;20477;-79
2021/11/04 10:05:03;;;;;;;70.57;36.30;;;8.60;95.10;;;;;;5052530;28;20029;-78
2021/11/04 10:07:40;;;;;;;61.33;32.65;;;8.60;95.10;;;;;;5052542;28;20090;-78
2021/11/04 10:10:06;;;;;;;61.03;33.45;;;8.70;95.50;;;;;;5052656;28;20394;-79
2021/11/04 10:12:31;;;;;;;67.95;36.45;;;8.80;95.20;;;;;;5034662;28;20032;-79
2021/11/04 10:15:11;;;;;;;69.80;33.95;;;8.90;94.90;;;;;;5026069;28;20121;-79
2021/11/04 10:17:37;;;;;;;65.13;33.97;;;8.90;94.90;;;;;;5043260;28;20025;-79
2021/11/04 10:20:21;;;;;;;60.30;31.05;;;9.00;94.80;;;;;;5051682;28;20085;-78
2021/11/04 10:23:07;;;;;;;65.10;32.55;;;9.00;94.80;;;;;;5052585;28;20017;-78
2021/11/04 10:25:33;;;;;;;63.88;33.63;;;9.00;94.80;;;;;;5050657;28;20033;-79
2021/11/04 10:27:59;;;;;;;64.70;35.60;;;9.00;94.50;;;;;;5052443;28;20124;-79
2021/11/04 10:30:40;;;;;;;60.35;33.78;;;9.00;94.60;;;;;;5051361;28;20553;-78
2021/11/04 10:33:32;;;;;;;56.67;32.08;;;9.00;94.70;;;;;;5052522;28;20013;-77
2021/11/04 10:36:00;;;;;;;55.05;32.83;;;8.90;94.70;;;;;;5052407;28;20040;-77
2021/11/04 10:38:37;;;;;;;52.63;30.33;;;8.90;94.70;;;;;;5053424;28;20028;-79
2021/11/04 10:41:08;;;;;;;54.20;30.20;;;8.90;94.70;;;;;;5037096;28;20032;-78
2021/11/04 10:43:35;;;;;;;53.97;30.45;;;8.80;94.70;;;;;;5036510;28;20105;-77
2021/11/04 10:46:05;;;;;;;55.17;30.52;;;8.70;95.00;;;;;;5035165;28;20029;-76
2021/11/04 10:48:33;;;;;;;51.00;30.70;;;8.70;94.80;;;;;;5036251;28;20076;-77
2021/11/04 10:50:59;;;;;;;54.05;31.92;;;8.70;94.80;;;;;;5036330;28;20092;-77
2021/11/04 10:53:26;;;;;;;54.95;32.15;;;8.70;94.80;;;;;;5036474;28;20060;-77
2021/11/04 10:56:11;;;;;;;48.05;29.20;;;8.70;94.90;;;;;;5034881;28;20451;-77
2021/11/04 10:58:37;;;;;;;51.90;30.33;;;8.70;95.00;;;;;;5034679;28;20041;-77
2021/11/04 11:01:02;;;;;;;55.65;31.80;;;8.60;95.00;;;;;;5035100;28;20113;-79
2021/11/04 11:03:29;;;;;;;49.35;30.00;;;8.70;95.10;;;;;;5052487;28;20577;-79
2021/11/04 11:05:58;;;;;;;55.65;31.30;;;8.70;95.10;;;;;;5054704;28;20032;-79
2021/11/04 11:08:26;;;;;;;53.83;29.55;;;8.70;95.10;;;;;;5034289;28;20026;-79
2021/11/04 11:10:52;;;;;;;48.70;29.27;;;8.70;95.10;;;;;;5046643;28;20063;-79
2021/11/04 11:13:18;;;;;;;55.22;31.73;;;8.80;95.20;;;;;;5055667;28;20061;-79
2021/11/04 11:15:59;;;;;;;60.10;32.75;;;8.80;95.20;;;;;;5055667;28;20025;-79
2021/11/04 11:18:29;;;;;;;62.25;33.50;;;8.90;95.10;;;;;;5055343;28;20033;-79
2021/11/04 11:20:56;;;;;;;56.90;32.13;;;8.90;95.10;;;;;;5055356;28;20090;-78
2021/11/04 11:23:25;;;;;;;69.55;35.55;;;8.90;95.10;;;;;;5055525;28;20086;-79
2021/11/04 11:25:57;;;;;;;60.08;33.85;;;9.00;95.10;;;;;;5055486;28;20060;-80
2021/11/04 11:28:29;;;;;;;58.38;33.47;;;9.00;95.10;;;;;;5053829;28;20041;-80
2021/11/04 11:31:10;;;;;;;51.85;31.52;;;9.00;95.10;;;;;;5055416;28;20078;-82
2021/11/04 11:34:02;;;;;;;55.83;31.65;;;9.00;95.00;;;;;;5045882;28;20074;-81
2021/11/04 11:36:28;;;;;;;64.85;33.30;;;9.10;95.00;;;;;;5031188;28;20039;-81
2021/11/04 11:38:57;;;;;;;60.15;32.28;;;9.10;94.80;;;;;;5016940;28;20458;-81
2021/11/04 11:41:24;;;;;;;63.15;33.00;;;9.10;94.80;;;;;;5033488;28;20367;-81
2021/11/04 11:43:53;;;;;;;56.92;32.10;;;9.10;94.80;;;;;;5046009;28;20040;-80
2021/11/04 11:46:19;;;;;;;;;;;9.20;94.90;;;;;;5053974;28;20082;-81
2021/11/04 11:49:04;;;;;;;60.72;32.95;;;9.20;94.90;;;;;;5054056;28;20016;-81
2021/11/04 11:51:39;;;;;;;71.65;39.22;;;9.20;94.90;;;;;;5053539;28;20044;-81
2021/11/04 11:54:05;;;;;;;68.03;37.63;;;9.30;94.90;;;;;;5060112;28;20026;-81
2021/11/04 11:56:30;;;;;;;70.40;37.95;;;9.30;94.90;;;;;;5046741;28;20095;-81
2021/11/04 11:59:22;;;;;;;73.82;39.17;;;9.30;94.90;;;;;;5053571;28;20163;-81
2021/11/04 12:01:49;;;;;;;72.20;39.08;;;9.30;94.90;;;;;;5053589;28;20083;-80
2021/11/04 12:04:27;;;;;;;81.85;43.58;;;9.30;94.90;;;;;;5041475;28;20037;-81
2021/11/04 12:06:58;;;;;;;77.13;42.47;;;9.30;95.10;;;;;;5034010;28;20390;-81
2021/11/04 12:09:36;;;;;;;85.15;44.70;;;9.30;95.10;;;;;;5054477;28;20116;-81
2021/11/04 12:12:03;;;;;;;77.63;44.17;;;9.30;95.10;;;;;;5054731;28;20389;-80
2021/11/04 12:14:34;;;;;;;79.30;43.40;;;9.40;95.10;;;;;;5053391;28;20649;-81
2021/11/04 12:17:00;;;;;;;75.20;43.05;;;9.40;95.10;;;;;;5052861;28;20025;-80
2021/11/04 12:19:46;;;;;;;83.50;46.40;;;9.40;95.10;;;;;;5034149;28;20032;-81
2021/11/04 12:22:23;;;;;;;82.82;45.35;;;9.40;95.20;;;;;;5049879;28;20065;-81
2021/11/04 12:25:06;;;;;;;72.53;41.50;;;9.40;95.10;;;;;;5033215;28;20120;-81
2021/11/04 12:27:41;;;;;;;71.43;40.33;;;9.40;95.10;;;;;;5034391;28;20069;-81
2021/11/04 12:30:25;;;;;;;71.80;42.55;;;9.40;95.20;;;;;;5033171;28;20540;-81
2021/11/04 12:33:10;;;;;;;65.43;39.95;;;9.50;95.30;;;;;;5032904;28;20029;-81
2021/11/04 12:35:53;;;;;;;65.97;39.58;;;9.50;95.30;;;;;;5044878;28;20355;-80
2021/11/04 12:38:30;;;;;;;56.85;36.53;;;9.50;95.30;;;;;;5053780;28;20029;-80